sensor_id;sensor_type;location;lat;lon;timestamp;P1;durP1;ratioP1;P2;durP2;ratioP2
5965;SDS011;3009;43.224;27.976;2023-07-02T00:01:18;5.67;;;5.33;;
5965;SDS011;3009;43.224;27.976;2023-07-02T00:03:46;5.50;;;5.10;;
5965;SDS011;3009;43.224;27.976;2023-07-02T00:06:14;5.20;;;4.80;;
5965;SDS011;3009;43.224;27.976;2023-07-02T00:08:44;5.97;;;5.43;;
5965;SDS011;3009;43.224;27.976;2023-07-02T00:11:13;5.33;;;4.93;;
5965;SDS011;3009;43.224;27.976;2023-07-02T00:13:43;6.00;;;5.40;;
5965;SDS011;3009;43.224;27.976;2023-07-02T00:16:13;7.23;;;5.20;;
5965;SDS011;3009;43.224;27.976;2023-07-02T00:18:41;6.73;;;5.03;;
5965;SDS011;3009;43.224;27.976;2023-07-02T00:21:10;6.63;;;5.73;;
5965;SDS011;3009;43.224;27.976;2023-07-02T00:23:39;5.87;;;5.37;;
5965;SDS011;3009;43.224;27.976;2023-07-02T00:26:08;8.03;;;5.20;;
5965;SDS011;3009;43.224;27.976;2023-07-02T00:28:38;9.23;;;5.20;;
5965;SDS011;3009;43.224;27.976;2023-07-02T00:31:06;6.40;;;6.00;;
5965;SDS011;3009;43.224;27.976;2023-07-02T00:33:40;13.20;;;5.23;;
5965;SDS011;3009;43.224;27.976;2023-07-02T00:36:12;6.00;;;5.40;;
5965;SDS011;3009;43.224;27.976;2023-07-02T00:38:44;14.03;;;5.87;;
5965;SDS011;3009;43.224;27.976;2023-07-02T00:41:16;9.87;;;5.70;;
5965;SDS011;3009;43.224;27.976;2023-07-02T00:43:47;11.03;;;5.40;;
5965;SDS011;3009;43.224;27.976;2023-07-02T00:46:23;9.50;;;6.03;;
5965;SDS011;3009;43.224;27.976;2023-07-02T00:48:55;6.10;;;5.63;;
5965;SDS011;3009;43.224;27.976;2023-07-02T00:51:26;7.00;;;6.17;;
5965;SDS011;3009;43.224;27.976;2023-07-02T00:53:57;6.70;;;6.20;;
5965;SDS011;3009;43.224;27.976;2023-07-02T00:56:29;6.27;;;5.67;;
5965;SDS011;3009;43.224;27.976;2023-07-02T00:59:00;5.80;;;5.50;;
5965;SDS011;3009;43.224;27.976;2023-07-02T01:01:30;7.13;;;5.67;;
5965;SDS011;3009;43.224;27.976;2023-07-02T01:04:07;6.87;;;5.60;;
5965;SDS011;3009;43.224;27.976;2023-07-02T01:06:39;6.07;;;5.57;;
5965;SDS011;3009;43.224;27.976;2023-07-02T01:09:11;8.00;;;5.97;;
5965;SDS011;3009;43.224;27.976;2023-07-02T01:11:43;9.17;;;6.47;;
5965;SDS011;3009;43.224;27.976;2023-07-02T01:14:19;6.17;;;5.67;;
5965;SDS011;3009;43.224;27.976;2023-07-02T01:16:54;6.80;;;6.17;;
5965;SDS011;3009;43.224;27.976;2023-07-02T01:19:32;23.97;;;7.90;;
5965;SDS011;3009;43.224;27.976;2023-07-02T01:22:09;6.80;;;6.27;;
5965;SDS011;3009;43.224;27.976;2023-07-02T01:24:42;6.90;;;6.40;;
5965;SDS011;3009;43.224;27.976;2023-07-02T01:27:12;6.43;;;5.90;;
5965;SDS011;3009;43.224;27.976;2023-07-02T01:29:43;8.40;;;6.23;;
5965;SDS011;3009;43.224;27.976;2023-07-02T01:32:14;6.30;;;5.80;;
5965;SDS011;3009;43.224;27.976;2023-07-02T01:34:44;6.60;;;6.10;;
5965;SDS011;3009;43.224;27.976;2023-07-02T01:37:15;7.27;;;6.77;;
5965;SDS011;3009;43.224;27.976;2023-07-02T01:39:44;7.20;;;6.13;;
5965;SDS011;3009;43.224;27.976;2023-07-02T01:42:13;16.23;;;6.20;;
5965;SDS011;3009;43.224;27.976;2023-07-02T01:44:43;7.50;;;6.47;;
5965;SDS011;3009;43.224;27.976;2023-07-02T01:47:13;8.20;;;6.63;;
5965;SDS011;3009;43.224;27.976;2023-07-02T01:49:44;7.30;;;6.60;;
5965;SDS011;3009;43.224;27.976;2023-07-02T01:52:12;6.83;;;6.33;;
5965;SDS011;3009;43.224;27.976;2023-07-02T01:54:40;11.83;;;7.23;;
5965;SDS011;3009;43.224;27.976;2023-07-02T01:57:09;6.73;;;6.13;;
5965;SDS011;3009;43.224;27.976;2023-07-02T01:59:37;10.20;;;7.20;;
5965;SDS011;3009;43.224;27.976;2023-07-02T02:02:06;6.90;;;6.30;;
5965;SDS011;3009;43.224;27.976;2023-07-02T02:04:34;7.10;;;6.60;;
5965;SDS011;3009;43.224;27.976;2023-07-02T02:07:04;8.07;;;6.60;;
5965;SDS011;3009;43.224;27.976;2023-07-02T02:09:33;6.87;;;6.27;;
5965;SDS011;3009;43.224;27.976;2023-07-02T02:12:01;7.73;;;7.13;;
5965;SDS011;3009;43.224;27.976;2023-07-02T02:14:29;7.17;;;6.67;;
5965;SDS011;3009;43.224;27.976;2023-07-02T02:16:58;7.93;;;7.17;;
5965;SDS011;3009;43.224;27.976;2023-07-02T02:19:26;9.03;;;8.10;;
5965;SDS011;3009;43.224;27.976;2023-07-02T02:21:54;7.47;;;6.87;;
5965;SDS011;3009;43.224;27.976;2023-07-02T02:24:26;8.53;;;7.87;;
5965;SDS011;3009;43.224;27.976;2023-07-02T02:26:59;7.47;;;6.87;;
5965;SDS011;3009;43.224;27.976;2023-07-02T02:29:30;11.80;;;7.60;;
5965;SDS011;3009;43.224;27.976;2023-07-02T02:32:02;7.33;;;6.53;;
5965;SDS011;3009;43.224;27.976;2023-07-02T02:34:33;7.97;;;7.17;;
5965;SDS011;3009;43.224;27.976;2023-07-02T02:37:06;17.10;;;7.30;;
5965;SDS011;3009;43.224;27.976;2023-07-02T02:39:38;11.33;;;6.70;;
5965;SDS011;3009;43.224;27.976;2023-07-02T02:42:10;10.20;;;7.40;;
5965;SDS011;3009;43.224;27.976;2023-07-02T02:44:42;11.67;;;7.90;;
5965;SDS011;3009;43.224;27.976;2023-07-02T02:47:11;8.03;;;7.33;;
5965;SDS011;3009;43.224;27.976;2023-07-02T02:49:39;10.37;;;7.30;;
5965;SDS011;3009;43.224;27.976;2023-07-02T02:52:08;9.03;;;7.20;;
5965;SDS011;3009;43.224;27.976;2023-07-02T02:54:37;7.83;;;7.10;;
5965;SDS011;3009;43.224;27.976;2023-07-02T02:57:06;7.40;;;6.80;;
5965;SDS011;3009;43.224;27.976;2023-07-02T02:59:34;8.10;;;6.30;;
5965;SDS011;3009;43.224;27.976;2023-07-02T03:02:03;9.83;;;7.13;;
5965;SDS011;3009;43.224;27.976;2023-07-02T03:04:31;11.30;;;6.20;;
5965;SDS011;3009;43.224;27.976;2023-07-02T03:07:00;7.33;;;6.57;;
5965;SDS011;3009;43.224;27.976;2023-07-02T03:09:29;6.80;;;5.93;;
5965;SDS011;3009;43.224;27.976;2023-07-02T03:11:59;7.07;;;6.50;;
5965;SDS011;3009;43.224;27.976;2023-07-02T03:14:27;8.50;;;6.93;;
5965;SDS011;3009;43.224;27.976;2023-07-02T03:16:56;8.90;;;5.87;;
5965;SDS011;3009;43.224;27.976;2023-07-02T03:19:25;15.00;;;6.53;;
5965;SDS011;3009;43.224;27.976;2023-07-02T03:21:54;9.30;;;6.70;;
5965;SDS011;3009;43.224;27.976;2023-07-02T03:24:26;7.20;;;5.57;;
5965;SDS011;3009;43.224;27.976;2023-07-02T03:26:54;9.27;;;4.87;;
5965;SDS011;3009;43.224;27.976;2023-07-02T03:29:24;9.63;;;5.00;;
5965;SDS011;3009;43.224;27.976;2023-07-02T03:31:53;4.77;;;4.40;;
5965;SDS011;3009;43.224;27.976;2023-07-02T03:34:21;17.00;;;5.10;;
5965;SDS011;3009;43.224;27.976;2023-07-02T03:36:50;10.03;;;4.80;;
5965;SDS011;3009;43.224;27.976;2023-07-02T03:39:18;10.83;;;4.87;;
5965;SDS011;3009;43.224;27.976;2023-07-02T03:41:47;5.33;;;4.83;;
5965;SDS011;3009;43.224;27.976;2023-07-02T03:44:15;5.40;;;5.00;;
5965;SDS011;3009;43.224;27.976;2023-07-02T03:46:45;4.70;;;4.40;;
5965;SDS011;3009;43.224;27.976;2023-07-02T03:49:14;5.43;;;5.00;;
5965;SDS011;3009;43.224;27.976;2023-07-02T03:51:43;4.60;;;4.40;;
5965;SDS011;3009;43.224;27.976;2023-07-02T03:54:11;5.00;;;4.70;;
5965;SDS011;3009;43.224;27.976;2023-07-02T03:56:39;4.70;;;4.40;;
5965;SDS011;3009;43.224;27.976;2023-07-02T03:59:08;6.13;;;5.10;;
5965;SDS011;3009;43.224;27.976;2023-07-02T04:01:36;4.83;;;4.43;;
5965;SDS011;3009;43.224;27.976;2023-07-02T04:04:06;5.50;;;5.10;;
5965;SDS011;3009;43.224;27.976;2023-07-02T04:06:35;5.27;;;4.77;;
5965;SDS011;3009;43.224;27.976;2023-07-02T04:09:03;14.53;;;5.10;;
5965;SDS011;3009;43.224;27.976;2023-07-02T04:11:32;4.33;;;4.03;;
5965;SDS011;3009;43.224;27.976;2023-07-02T04:14:00;4.87;;;4.50;;
5965;SDS011;3009;43.224;27.976;2023-07-02T04:16:29;5.90;;;5.50;;
5965;SDS011;3009;43.224;27.976;2023-07-02T04:18:57;6.60;;;4.83;;
5965;SDS011;3009;43.224;27.976;2023-07-02T04:21:27;4.60;;;4.40;;
5965;SDS011;3009;43.224;27.976;2023-07-02T04:23:56;4.27;;;4.07;;
5965;SDS011;3009;43.224;27.976;2023-07-02T04:26:25;4.40;;;4.07;;
5965;SDS011;3009;43.224;27.976;2023-07-02T04:29:14;5.93;;;4.73;;
5965;SDS011;3009;43.224;27.976;2023-07-02T04:31:43;4.50;;;4.20;;
5965;SDS011;3009;43.224;27.976;2023-07-02T04:34:11;7.60;;;4.10;;
5965;SDS011;3009;43.224;27.976;2023-07-02T04:36:41;11.23;;;4.65;;
5965;SDS011;3009;43.224;27.976;2023-07-02T04:39:09;4.60;;;4.40;;
5965;SDS011;3009;43.224;27.976;2023-07-02T04:41:38;3.60;;;3.50;;
5965;SDS011;3009;43.224;27.976;2023-07-02T04:44:06;4.25;;;3.95;;
5965;SDS011;3009;43.224;27.976;2023-07-02T04:46:34;3.60;;;3.40;;
5965;SDS011;3009;43.224;27.976;2023-07-02T04:49:03;5.80;;;3.47;;
5965;SDS011;3009;43.224;27.976;2023-07-02T04:51:31;3.70;;;3.42;;
5965;SDS011;3009;43.224;27.976;2023-07-02T04:54:01;9.32;;;4.15;;
5965;SDS011;3009;43.224;27.976;2023-07-02T04:56:29;3.90;;;3.70;;
5965;SDS011;3009;43.224;27.976;2023-07-02T04:58:57;4.65;;;3.78;;
5965;SDS011;3009;43.224;27.976;2023-07-02T05:01:27;4.22;;;3.88;;
5965;SDS011;3009;43.224;27.976;2023-07-02T05:03:55;4.13;;;3.83;;
5965;SDS011;3009;43.224;27.976;2023-07-02T05:06:24;4.40;;;4.10;;
5965;SDS011;3009;43.224;27.976;2023-07-02T05:08:52;6.23;;;4.23;;
5965;SDS011;3009;43.224;27.976;2023-07-02T05:11:22;5.43;;;4.33;;
5965;SDS011;3009;43.224;27.976;2023-07-02T05:13:51;5.77;;;4.40;;
5965;SDS011;3009;43.224;27.976;2023-07-02T05:16:19;5.33;;;4.83;;
5965;SDS011;3009;43.224;27.976;2023-07-02T05:18:47;5.33;;;4.90;;
5965;SDS011;3009;43.224;27.976;2023-07-02T05:21:17;6.93;;;4.60;;
5965;SDS011;3009;43.224;27.976;2023-07-02T05:23:45;5.33;;;4.70;;
5965;SDS011;3009;43.224;27.976;2023-07-02T05:26:14;9.53;;;4.80;;
5965;SDS011;3009;43.224;27.976;2023-07-02T05:28:44;5.40;;;4.67;;
5965;SDS011;3009;43.224;27.976;2023-07-02T05:31:12;6.47;;;4.90;;
5965;SDS011;3009;43.224;27.976;2023-07-02T05:33:41;7.63;;;4.50;;
5965;SDS011;3009;43.224;27.976;2023-07-02T05:36:09;3.93;;;3.77;;
5965;SDS011;3009;43.224;27.976;2023-07-02T05:38:37;4.60;;;4.20;;
5965;SDS011;3009;43.224;27.976;2023-07-02T05:41:06;4.20;;;3.90;;
5965;SDS011;3009;43.224;27.976;2023-07-02T05:43:34;4.30;;;3.90;;
5965;SDS011;3009;43.224;27.976;2023-07-02T05:46:04;4.70;;;4.20;;
5965;SDS011;3009;43.224;27.976;2023-07-02T05:48:32;13.67;;;4.67;;
5965;SDS011;3009;43.224;27.976;2023-07-02T05:51:00;4.70;;;4.23;;
5965;SDS011;3009;43.224;27.976;2023-07-02T05:53:29;4.60;;;4.30;;
5965;SDS011;3009;43.224;27.976;2023-07-02T05:55:58;4.97;;;4.57;;
5965;SDS011;3009;43.224;27.976;2023-07-02T05:58:28;12.90;;;4.70;;
5965;SDS011;3009;43.224;27.976;2023-07-02T06:01:17;4.50;;;4.20;;
5965;SDS011;3009;43.224;27.976;2023-07-02T06:03:46;5.60;;;4.47;;
5965;SDS011;3009;43.224;27.976;2023-07-02T06:06:17;4.87;;;4.57;;
5965;SDS011;3009;43.224;27.976;2023-07-02T06:08:46;4.97;;;4.60;;
5965;SDS011;3009;43.224;27.976;2023-07-02T06:11:15;4.40;;;4.10;;
5965;SDS011;3009;43.224;27.976;2023-07-02T06:13:43;4.70;;;4.40;;
5965;SDS011;3009;43.224;27.976;2023-07-02T06:16:12;4.72;;;4.30;;
5965;SDS011;3009;43.224;27.976;2023-07-02T06:18:42;6.70;;;4.55;;
5965;SDS011;3009;43.224;27.976;2023-07-02T06:21:10;5.05;;;4.65;;
5965;SDS011;3009;43.224;27.976;2023-07-02T06:23:41;4.63;;;4.25;;
5965;SDS011;3009;43.224;27.976;2023-07-02T06:26:11;5.70;;;4.55;;
5965;SDS011;3009;43.224;27.976;2023-07-02T06:28:39;4.73;;;4.43;;
5965;SDS011;3009;43.224;27.976;2023-07-02T06:31:08;5.47;;;5.07;;
5965;SDS011;3009;43.224;27.976;2023-07-02T06:33:38;5.13;;;4.73;;
5965;SDS011;3009;43.224;27.976;2023-07-02T06:36:10;5.30;;;4.80;;
5965;SDS011;3009;43.224;27.976;2023-07-02T06:38:43;5.47;;;4.90;;
5965;SDS011;3009;43.224;27.976;2023-07-02T06:41:12;5.43;;;4.93;;
5965;SDS011;3009;43.224;27.976;2023-07-02T06:43:41;5.80;;;5.30;;
5965;SDS011;3009;43.224;27.976;2023-07-02T06:46:10;5.40;;;5.10;;
5965;SDS011;3009;43.224;27.976;2023-07-02T06:48:39;5.00;;;4.70;;
5965;SDS011;3009;43.224;27.976;2023-07-02T06:51:07;4.90;;;4.50;;
5965;SDS011;3009;43.224;27.976;2023-07-02T06:53:37;5.10;;;4.80;;
5965;SDS011;3009;43.224;27.976;2023-07-02T06:56:05;7.97;;;5.00;;
5965;SDS011;3009;43.224;27.976;2023-07-02T06:58:35;4.90;;;4.60;;
5965;SDS011;3009;43.224;27.976;2023-07-02T07:01:04;6.50;;;5.83;;
5965;SDS011;3009;43.224;27.976;2023-07-02T07:03:34;5.50;;;5.20;;
5965;SDS011;3009;43.224;27.976;2023-07-02T07:06:03;5.60;;;4.93;;
5965;SDS011;3009;43.224;27.976;2023-07-02T07:08:31;8.40;;;5.33;;
5965;SDS011;3009;43.224;27.976;2023-07-02T07:11:01;6.27;;;4.90;;
5965;SDS011;3009;43.224;27.976;2023-07-02T07:13:29;5.47;;;5.07;;
5965;SDS011;3009;43.224;27.976;2023-07-02T07:15:58;4.90;;;4.50;;
5965;SDS011;3009;43.224;27.976;2023-07-02T07:18:26;5.17;;;4.90;;
5965;SDS011;3009;43.224;27.976;2023-07-02T07:20:58;5.07;;;4.67;;
5965;SDS011;3009;43.224;27.976;2023-07-02T07:23:27;5.30;;;4.87;;
5965;SDS011;3009;43.224;27.976;2023-07-02T07:25:55;5.10;;;4.70;;
5965;SDS011;3009;43.224;27.976;2023-07-02T07:28:25;4.60;;;4.30;;
5965;SDS011;3009;43.224;27.976;2023-07-02T07:30:53;4.75;;;4.35;;
5965;SDS011;3009;43.224;27.976;2023-07-02T07:33:22;5.00;;;4.70;;
5965;SDS011;3009;43.224;27.976;2023-07-02T07:35:50;8.02;;;4.32;;
5965;SDS011;3009;43.224;27.976;2023-07-02T07:38:18;5.15;;;4.85;;
5965;SDS011;3009;43.224;27.976;2023-07-02T07:40:47;5.18;;;4.88;;
5965;SDS011;3009;43.224;27.976;2023-07-02T07:43:16;5.40;;;5.00;;
5965;SDS011;3009;43.224;27.976;2023-07-02T07:45:45;4.77;;;4.40;;
5965;SDS011;3009;43.224;27.976;2023-07-02T07:48:14;5.03;;;4.73;;
5965;SDS011;3009;43.224;27.976;2023-07-02T07:50:43;7.33;;;5.07;;
5965;SDS011;3009;43.224;27.976;2023-07-02T07:53:11;6.63;;;6.00;;
5965;SDS011;3009;43.224;27.976;2023-07-02T07:55:40;6.10;;;5.70;;
5965;SDS011;3009;43.224;27.976;2023-07-02T07:58:08;5.70;;;5.20;;
5965;SDS011;3009;43.224;27.976;2023-07-02T08:00:37;6.50;;;5.53;;
5965;SDS011;3009;43.224;27.976;2023-07-02T08:03:18;5.90;;;5.00;;
5965;SDS011;3009;43.224;27.976;2023-07-02T08:05:46;5.57;;;5.27;;
5965;SDS011;3009;43.224;27.976;2023-07-02T08:08:15;5.40;;;4.90;;
5965;SDS011;3009;43.224;27.976;2023-07-02T08:10:43;5.00;;;4.60;;
5965;SDS011;3009;43.224;27.976;2023-07-02T08:13:13;7.90;;;5.13;;
5965;SDS011;3009;43.224;27.976;2023-07-02T08:15:43;5.60;;;5.20;;
5965;SDS011;3009;43.224;27.976;2023-07-02T08:18:13;6.53;;;5.30;;
5965;SDS011;3009;43.224;27.976;2023-07-02T08:20:42;5.10;;;4.80;;
5965;SDS011;3009;43.224;27.976;2023-07-02T08:23:14;6.07;;;5.27;;
5965;SDS011;3009;43.224;27.976;2023-07-02T08:25:42;6.20;;;4.80;;
5965;SDS011;3009;43.224;27.976;2023-07-02T08:28:10;5.60;;;5.20;;
5965;SDS011;3009;43.224;27.976;2023-07-02T08:30:39;5.37;;;4.90;;
5965;SDS011;3009;43.224;27.976;2023-07-02T08:33:07;6.57;;;6.03;;
5965;SDS011;3009;43.224;27.976;2023-07-02T08:35:37;5.97;;;5.47;;
5965;SDS011;3009;43.224;27.976;2023-07-02T08:38:05;6.30;;;5.77;;
5965;SDS011;3009;43.224;27.976;2023-07-02T08:40:34;5.40;;;5.00;;
5965;SDS011;3009;43.224;27.976;2023-07-02T08:43:03;6.17;;;5.60;;
5965;SDS011;3009;43.224;27.976;2023-07-02T08:45:31;6.10;;;5.60;;
5965;SDS011;3009;43.224;27.976;2023-07-02T08:48:00;5.93;;;5.43;;
5965;SDS011;3009;43.224;27.976;2023-07-02T08:50:29;6.20;;;5.80;;
5965;SDS011;3009;43.224;27.976;2023-07-02T08:52:59;5.90;;;5.50;;
5965;SDS011;3009;43.224;27.976;2023-07-02T08:55:27;7.07;;;6.37;;
5965;SDS011;3009;43.224;27.976;2023-07-02T08:57:56;5.73;;;5.40;;
5965;SDS011;3009;43.224;27.976;2023-07-02T09:00:27;5.57;;;5.27;;
5965;SDS011;3009;43.224;27.976;2023-07-02T09:02:57;5.80;;;5.40;;
5965;SDS011;3009;43.224;27.976;2023-07-02T09:05:26;6.13;;;5.67;;
5965;SDS011;3009;43.224;27.976;2023-07-02T09:07:54;6.23;;;5.73;;
5965;SDS011;3009;43.224;27.976;2023-07-02T09:10:30;6.30;;;5.90;;
5965;SDS011;3009;43.224;27.976;2023-07-02T09:13:02;6.13;;;5.73;;
5965;SDS011;3009;43.224;27.976;2023-07-02T09:15:35;6.27;;;5.77;;
5965;SDS011;3009;43.224;27.976;2023-07-02T09:18:16;9.10;;;6.20;;
5965;SDS011;3009;43.224;27.976;2023-07-02T09:20:45;5.50;;;5.10;;
5965;SDS011;3009;43.224;27.976;2023-07-02T09:23:14;6.43;;;5.93;;
5965;SDS011;3009;43.224;27.976;2023-07-02T09:25:44;8.73;;;6.50;;
5965;SDS011;3009;43.224;27.976;2023-07-02T09:28:16;6.70;;;6.20;;
5965;SDS011;3009;43.224;27.976;2023-07-02T09:30:50;6.73;;;6.03;;
5965;SDS011;3009;43.224;27.976;2023-07-02T09:33:19;7.20;;;6.60;;
5965;SDS011;3009;43.224;27.976;2023-07-02T09:35:49;7.00;;;5.80;;
5965;SDS011;3009;43.224;27.976;2023-07-02T09:38:18;6.00;;;5.40;;
5965;SDS011;3009;43.224;27.976;2023-07-02T09:40:49;9.73;;;5.80;;
5965;SDS011;3009;43.224;27.976;2023-07-02T09:43:19;6.70;;;6.17;;
5965;SDS011;3009;43.224;27.976;2023-07-02T09:45:49;6.33;;;5.93;;
5965;SDS011;3009;43.224;27.976;2023-07-02T09:48:19;5.83;;;5.40;;
5965;SDS011;3009;43.224;27.976;2023-07-02T09:50:52;9.30;;;5.53;;
5965;SDS011;3009;43.224;27.976;2023-07-02T09:53:22;7.77;;;5.60;;
5965;SDS011;3009;43.224;27.976;2023-07-02T09:55:52;6.23;;;5.70;;
5965;SDS011;3009;43.224;27.976;2023-07-02T09:58:20;6.47;;;6.07;;
5965;SDS011;3009;43.224;27.976;2023-07-02T10:00:49;6.20;;;5.60;;
5965;SDS011;3009;43.224;27.976;2023-07-02T10:03:27;7.03;;;5.63;;
5965;SDS011;3009;43.224;27.976;2023-07-02T10:06:03;5.80;;;5.40;;
5965;SDS011;3009;43.224;27.976;2023-07-02T10:08:32;7.20;;;5.60;;
5965;SDS011;3009;43.224;27.976;2023-07-02T10:11:12;9.63;;;5.87;;
5965;SDS011;3009;43.224;27.976;2023-07-02T10:13:40;6.30;;;5.80;;
5965;SDS011;3009;43.224;27.976;2023-07-02T10:16:09;6.80;;;6.20;;
5965;SDS011;3009;43.224;27.976;2023-07-02T10:18:38;6.10;;;5.50;;
5965;SDS011;3009;43.224;27.976;2023-07-02T10:21:13;6.90;;;5.80;;
5965;SDS011;3009;43.224;27.976;2023-07-02T10:23:42;6.00;;;5.60;;
5965;SDS011;3009;43.224;27.976;2023-07-02T10:26:13;7.17;;;5.60;;
5965;SDS011;3009;43.224;27.976;2023-07-02T10:28:43;6.80;;;6.20;;
5965;SDS011;3009;43.224;27.976;2023-07-02T10:31:24;6.27;;;5.67;;
5965;SDS011;3009;43.224;27.976;2023-07-02T10:33:52;6.53;;;6.03;;
5965;SDS011;3009;43.224;27.976;2023-07-02T10:36:21;8.77;;;6.20;;
5965;SDS011;3009;43.224;27.976;2023-07-02T10:38:51;7.20;;;6.60;;
5965;SDS011;3009;43.224;27.976;2023-07-02T10:41:27;6.17;;;5.70;;
5965;SDS011;3009;43.224;27.976;2023-07-02T10:44:04;6.83;;;6.20;;
5965;SDS011;3009;43.224;27.976;2023-07-02T10:46:33;7.27;;;6.60;;
5965;SDS011;3009;43.224;27.976;2023-07-02T10:49:02;8.83;;;6.77;;
5965;SDS011;3009;43.224;27.976;2023-07-02T10:51:31;6.50;;;5.90;;
5965;SDS011;3009;43.224;27.976;2023-07-02T10:53:59;5.90;;;5.40;;
5965;SDS011;3009;43.224;27.976;2023-07-02T10:56:32;6.23;;;5.80;;
5965;SDS011;3009;43.224;27.976;2023-07-02T10:59:00;6.80;;;6.30;;
5965;SDS011;3009;43.224;27.976;2023-07-02T11:01:29;10.10;;;6.70;;
5965;SDS011;3009;43.224;27.976;2023-07-02T11:03:59;6.83;;;6.13;;
5965;SDS011;3009;43.224;27.976;2023-07-02T11:06:29;9.83;;;6.50;;
5965;SDS011;3009;43.224;27.976;2023-07-02T11:08:59;7.87;;;6.80;;
5965;SDS011;3009;43.224;27.976;2023-07-02T11:11:27;6.50;;;6.00;;
5965;SDS011;3009;43.224;27.976;2023-07-02T11:13:57;7.30;;;6.27;;
5965;SDS011;3009;43.224;27.976;2023-07-02T11:16:26;6.77;;;6.20;;
5965;SDS011;3009;43.224;27.976;2023-07-02T11:19:06;7.60;;;6.17;;
5965;SDS011;3009;43.224;27.976;2023-07-02T11:21:35;6.47;;;5.97;;
5965;SDS011;3009;43.224;27.976;2023-07-02T11:24:05;6.83;;;6.33;;
5965;SDS011;3009;43.224;27.976;2023-07-02T11:26:35;8.73;;;5.57;;
5965;SDS011;3009;43.224;27.976;2023-07-02T11:29:06;6.10;;;5.57;;
5965;SDS011;3009;43.224;27.976;2023-07-02T11:31:38;6.90;;;5.50;;
5965;SDS011;3009;43.224;27.976;2023-07-02T11:34:11;7.90;;;6.23;;
5965;SDS011;3009;43.224;27.976;2023-07-02T11:36:41;6.83;;;6.00;;
5965;SDS011;3009;43.224;27.976;2023-07-02T11:39:10;10.53;;;6.33;;
5965;SDS011;3009;43.224;27.976;2023-07-02T11:41:41;6.23;;;5.80;;
5965;SDS011;3009;43.224;27.976;2023-07-02T11:44:12;6.20;;;5.70;;
5965;SDS011;3009;43.224;27.976;2023-07-02T11:46:40;6.23;;;5.73;;
5965;SDS011;3009;43.224;27.976;2023-07-02T11:49:08;6.13;;;5.63;;
5965;SDS011;3009;43.224;27.976;2023-07-02T11:51:37;6.00;;;5.60;;
5965;SDS011;3009;43.224;27.976;2023-07-02T11:54:06;7.50;;;6.90;;
5965;SDS011;3009;43.224;27.976;2023-07-02T11:56:35;6.03;;;5.73;;
5965;SDS011;3009;43.224;27.976;2023-07-02T11:59:04;6.17;;;5.80;;
5965;SDS011;3009;43.224;27.976;2023-07-02T12:01:34;6.37;;;5.87;;
5965;SDS011;3009;43.224;27.976;2023-07-02T12:04:03;6.20;;;5.60;;
5965;SDS011;3009;43.224;27.976;2023-07-02T12:06:32;6.30;;;5.80;;
5965;SDS011;3009;43.224;27.976;2023-07-02T12:09:00;6.97;;;5.53;;
5965;SDS011;3009;43.224;27.976;2023-07-02T12:11:28;5.73;;;5.43;;
5965;SDS011;3009;43.224;27.976;2023-07-02T12:13:57;6.70;;;6.10;;
5965;SDS011;3009;43.224;27.976;2023-07-02T12:16:25;5.70;;;5.30;;
5965;SDS011;3009;43.224;27.976;2023-07-02T12:18:55;6.27;;;5.67;;
5965;SDS011;3009;43.224;27.976;2023-07-02T12:21:23;6.13;;;5.60;;
5965;SDS011;3009;43.224;27.976;2023-07-02T12:23:51;5.97;;;5.30;;
5965;SDS011;3009;43.224;27.976;2023-07-02T12:26:20;6.30;;;5.73;;
5965;SDS011;3009;43.224;27.976;2023-07-02T12:28:49;7.67;;;5.50;;
5965;SDS011;3009;43.224;27.976;2023-07-02T12:31:17;6.00;;;5.60;;
5965;SDS011;3009;43.224;27.976;2023-07-02T12:33:46;5.90;;;5.47;;
5965;SDS011;3009;43.224;27.976;2023-07-02T12:36:16;5.80;;;5.40;;
5965;SDS011;3009;43.224;27.976;2023-07-02T12:38:44;5.60;;;5.30;;
5965;SDS011;3009;43.224;27.976;2023-07-02T12:41:12;10.43;;;7.80;;
5965;SDS011;3009;43.224;27.976;2023-07-02T12:43:42;26.03;;;6.17;;
5965;SDS011;3009;43.224;27.976;2023-07-02T12:46:10;5.97;;;5.37;;
5965;SDS011;3009;43.224;27.976;2023-07-02T12:48:39;5.30;;;4.97;;
5965;SDS011;3009;43.224;27.976;2023-07-02T12:51:07;5.27;;;4.87;;
5965;SDS011;3009;43.224;27.976;2023-07-02T12:53:37;9.80;;;5.90;;
5965;SDS011;3009;43.224;27.976;2023-07-02T12:56:05;5.90;;;5.40;;
5965;SDS011;3009;43.224;27.976;2023-07-02T12:58:33;5.60;;;5.30;;
5965;SDS011;3009;43.224;27.976;2023-07-02T13:01:02;6.93;;;6.00;;
5965;SDS011;3009;43.224;27.976;2023-07-02T13:03:30;6.07;;;5.50;;
5965;SDS011;3009;43.224;27.976;2023-07-02T13:05:59;8.00;;;5.90;;
5965;SDS011;3009;43.224;27.976;2023-07-02T13:08:27;7.13;;;6.00;;
5965;SDS011;3009;43.224;27.976;2023-07-02T13:10:57;8.23;;;6.40;;
5965;SDS011;3009;43.224;27.976;2023-07-02T13:13:25;8.83;;;6.10;;
5965;SDS011;3009;43.224;27.976;2023-07-02T13:15:55;6.57;;;6.07;;
5965;SDS011;3009;43.224;27.976;2023-07-02T13:18:24;8.83;;;6.13;;
5965;SDS011;3009;43.224;27.976;2023-07-02T13:20:52;6.67;;;5.67;;
5965;SDS011;3009;43.224;27.976;2023-07-02T13:23:21;6.23;;;5.70;;
5965;SDS011;3009;43.224;27.976;2023-07-02T13:25:49;8.50;;;6.30;;
5965;SDS011;3009;43.224;27.976;2023-07-02T13:28:20;7.07;;;6.47;;
5965;SDS011;3009;43.224;27.976;2023-07-02T13:30:49;10.60;;;6.90;;
5965;SDS011;3009;43.224;27.976;2023-07-02T13:33:18;6.37;;;5.77;;
5965;SDS011;3009;43.224;27.976;2023-07-02T13:35:46;6.97;;;6.47;;
5965;SDS011;3009;43.224;27.976;2023-07-02T13:38:16;18.50;;;7.20;;
5965;SDS011;3009;43.224;27.976;2023-07-02T13:40:44;8.00;;;7.20;;
5965;SDS011;3009;43.224;27.976;2023-07-02T13:43:12;6.30;;;5.80;;
5965;SDS011;3009;43.224;27.976;2023-07-02T13:45:42;7.40;;;6.80;;
5965;SDS011;3009;43.224;27.976;2023-07-02T13:48:11;7.80;;;6.70;;
5965;SDS011;3009;43.224;27.976;2023-07-02T13:50:39;6.70;;;6.30;;
5965;SDS011;3009;43.224;27.976;2023-07-02T13:53:07;7.23;;;6.57;;
5965;SDS011;3009;43.224;27.976;2023-07-02T13:55:36;9.10;;;6.60;;
5965;SDS011;3009;43.224;27.976;2023-07-02T13:58:05;7.63;;;7.03;;
5965;SDS011;3009;43.224;27.976;2023-07-02T14:00:35;7.83;;;6.57;;
5965;SDS011;3009;43.224;27.976;2023-07-02T14:03:04;8.20;;;6.33;;
5965;SDS011;3009;43.224;27.976;2023-07-02T14:05:33;7.10;;;6.60;;
5965;SDS011;3009;43.224;27.976;2023-07-02T14:08:02;7.33;;;6.63;;
5965;SDS011;3009;43.224;27.976;2023-07-02T14:10:30;10.07;;;6.10;;
5965;SDS011;3009;43.224;27.976;2023-07-02T14:12:59;7.53;;;6.83;;
5965;SDS011;3009;43.224;27.976;2023-07-02T14:15:27;7.57;;;6.63;;
5965;SDS011;3009;43.224;27.976;2023-07-02T14:17:57;14.23;;;7.07;;
5965;SDS011;3009;43.224;27.976;2023-07-02T14:20:25;6.60;;;6.20;;
5965;SDS011;3009;43.224;27.976;2023-07-02T14:22:54;6.70;;;6.20;;
5965;SDS011;3009;43.224;27.976;2023-07-02T14:25:22;6.77;;;6.10;;
5965;SDS011;3009;43.224;27.976;2023-07-02T14:28:07;7.40;;;6.57;;
5965;SDS011;3009;43.224;27.976;2023-07-02T14:30:36;7.27;;;6.70;;
5965;SDS011;3009;43.224;27.976;2023-07-02T14:33:06;7.90;;;7.17;;
5965;SDS011;3009;43.224;27.976;2023-07-02T14:35:34;10.70;;;7.50;;
5965;SDS011;3009;43.224;27.976;2023-07-02T14:38:03;12.37;;;7.73;;
5965;SDS011;3009;43.224;27.976;2023-07-02T14:40:32;11.50;;;7.40;;
5965;SDS011;3009;43.224;27.976;2023-07-02T14:43:00;12.70;;;6.50;;
5965;SDS011;3009;43.224;27.976;2023-07-02T14:45:30;7.37;;;6.77;;
5965;SDS011;3009;43.224;27.976;2023-07-02T14:47:59;7.17;;;6.30;;
5965;SDS011;3009;43.224;27.976;2023-07-02T14:50:29;7.60;;;6.30;;
5965;SDS011;3009;43.224;27.976;2023-07-02T14:52:58;13.47;;;7.00;;
5965;SDS011;3009;43.224;27.976;2023-07-02T14:55:26;6.80;;;6.30;;
5965;SDS011;3009;43.224;27.976;2023-07-02T14:57:54;7.73;;;7.00;;
5965;SDS011;3009;43.224;27.976;2023-07-02T15:00:23;7.87;;;7.20;;
5965;SDS011;3009;43.224;27.976;2023-07-02T15:02:51;7.23;;;6.53;;
5965;SDS011;3009;43.224;27.976;2023-07-02T15:05:20;8.10;;;6.80;;
5965;SDS011;3009;43.224;27.976;2023-07-02T15:07:50;6.87;;;6.33;;
5965;SDS011;3009;43.224;27.976;2023-07-02T15:10:18;10.13;;;6.50;;
5965;SDS011;3009;43.224;27.976;2023-07-02T15:12:47;8.57;;;6.73;;
5965;SDS011;3009;43.224;27.976;2023-07-02T15:15:15;9.00;;;6.97;;